Time;durP1;ratioP1;P1;durP2;ratioP2;P2;SDS_P1;SDS_P2;PMS_P1;PMS_P2;Temp;Humidity;BMP_temperature;BMP_pressure;BME280_temperature;BME280_humidity;BME280_pressure;Samples;Min_cycle;Max_cycle;Signal;HPM_P1;HPM_P2
2022/11/11 00:01:01;;;;;;;;;;;;;;;18.34;68.23;102155.73;2456750;72;51568;-76
2022/11/11 00:04:02;;;;;;;;;;;;;;;18.34;68.27;102149.91;2456777;72;51575;-76
2022/11/11 00:07:04;;;;;;;;;;;;;;;18.35;68.26;102154.77;2409704;72;50616;-76
2022/11/11 00:10:06;;;;;;;;;;;;;;;18.36;68.20;102147.06;2456417;72;50050;-76
2022/11/11 00:13:08;;;;;;;;;;;;;;;18.32;68.25;102146.52;2456762;72;50355;-76
2022/11/11 00:16:10;;;;;;;;;;;;;;;18.30;68.20;102137.77;2456699;72;50258;-76
2022/11/11 00:25:52;;;;;;;;;;;;;;;18.28;68.18;102146.45;2370940;75;22506;-76
2022/11/11 00:28:53;;;;;;;;;;;;;;;18.28;68.17;102152.64;2370187;75;50460;-76
2022/11/11 00:38:46;;;;;;;;;;;;;;;18.26;68.24;102165.83;2346702;75;22489;-76
2022/11/11 00:41:48;;;;;;;;;;;;;;;18.25;68.13;102169.52;2345020;75;51585;-76
2022/11/11 00:44:49;;;;;;;;;;;;;;;18.25;68.15;102161.47;2369841;75;51579;-76
2022/11/11 00:51:10;;;;;;;;;;;;;;;18.25;68.21;102169.02;2347224;75;24399;-76
2022/11/11 00:54:12;;;;;;;;;;;;;;;18.23;68.19;102166.13;2342897;75;50315;-76
2022/11/11 00:57:13;;;;;;;;;;;;;;;18.24;68.19;102165.16;2370109;75;50394;-77
2022/11/11 01:00:15;;;;;;;;;;;;;;;18.22;68.17;102162.61;2342102;75;51255;-76
2022/11/11 01:03:17;;;;;;;;;;;;;;;18.23;68.09;102150.05;2342234;75;50726;-76
2022/11/11 01:06:18;;;;;;;;;;;;;;;18.22;68.03;102152.39;2343337;75;50178;-76
2022/11/11 01:09:20;;;;;;;;;;;;;;;18.23;68.09;102154.06;2370177;75;50427;-76
2022/11/11 01:12:21;;;;;;;;;;;;;;;18.22;68.03;102146.53;2359158;75;50634;-76
2022/11/11 01:15:23;;;;;;;;;;;;;;;18.22;67.85;102131.80;2347379;75;52482;-77
2022/11/11 01:18:25;;;;;;;;;;;;;;;18.22;67.95;102126.94;2367299;73;51417;-77
2022/11/11 01:21:26;;;;;;;;;;;;;;;18.23;67.87;102117.90;2413048;73;50746;-76
2022/11/11 01:24:28;;;;;;;;;;;;;;;18.20;68.07;102115.52;2386941;73;52528;-77
2022/11/11 01:27:30;;;;;;;;;;;;;;;18.19;67.91;102111.16;2413079;73;51422;-76
2022/11/11 01:30:31;;;;;;;;;;;;;;;18.19;67.98;102113.84;2413002;73;51489;-76
2022/11/11 01:33:33;;;;;;;;;;;;;;;18.18;67.93;102111.63;2412726;73;51421;-76
2022/11/11 01:36:35;;;;;;;;;;;;;;;18.19;68.05;102109.82;2387160;73;50025;-77
2022/11/11 01:39:36;;;;;;;;;;;;;;;18.18;67.84;102118.83;2383279;73;50954;-76
2022/11/11 01:42:48;;;;;;;;;;;;;;;18.19;67.90;102120.54;2414214;73;50766;-76
2022/11/11 01:45:51;;;;;;;;;;;;;;;18.19;67.83;102116.52;2414437;73;51452;-76
2022/11/11 01:52:22;;;;;;;;;;;;;;;18.20;67.91;102132.93;2388195;74;22458;-76
2022/11/11 01:55:24;;;;;;;;;;;;;;;18.17;67.93;102127.37;2388464;74;50267;-76
2022/11/11 01:58:26;;;;;;;;;;;;;;;18.17;67.92;102123.84;2390887;74;50349;-76
2022/11/11 02:01:27;;;;;;;;;;;;;;;18.17;67.77;102122.01;2365757;74;51913;-77
2022/11/11 02:07:48;;;;;;;;;;;;;;;18.18;67.66;102130.88;2388478;74;22435;-76
2022/11/11 02:10:50;;;;;;;;;;;;;;;18.17;67.82;102142.09;2394111;73;50660;-76
2022/11/11 02:17:13;;;;;;;;;;;;;;;18.16;67.87;102148.46;2415121;73;22402;-76
2022/11/11 02:20:15;;;;;;;;;;;;;;;18.16;67.85;102160.52;2415006;73;51510;-77
2022/11/11 02:23:18;;;;;;;;;;;;;;;18.16;67.79;102164.53;2425483;72;50661;-76
2022/11/11 02:26:20;;;;;;;;;;;;;;;18.17;67.78;102162.69;2410527;73;49822;-76
2022/11/11 02:29:21;;;;;;;;;;;;;;;18.17;67.78;102162.19;2382179;73;51070;-76
2022/11/11 02:32:23;;;;;;;;;;;;;;;18.16;67.80;102178.40;2412223;73;50277;-76
2022/11/11 02:35:32;;;;;;;;;;;;;;;18.14;67.57;102179.06;2383233;73;50612;-76
2022/11/11 02:38:33;;;;;;;;;;;;;;;18.15;67.76;102182.08;2376794;73;51159;-76
2022/11/11 02:44:57;;;;;;;;;;;;;;;18.15;67.55;102171.36;2387913;73;22456;-75
2022/11/11 02:47:57;;;;;;;;;;;;;;;18.15;67.69;102170.86;2383898;73;22316;-76
2022/11/11 02:50:59;;;;;;;;;;;;;;;18.14;67.71;102167.84;2376530;73;52373;-75
2022/11/11 02:54:00;;;;;;;;;;;;;;;18.14;67.64;102168.34;2412115;73;50550;-76
2022/11/11 02:57:08;;;;;;;;;;;;;;;18.15;67.70;102166.00;2380180;73;50001;-76
2022/11/11 03:00:10;;;;;;;;;;;;;;;18.12;67.61;102164.95;2382985;73;50726;-75
2022/11/11 03:03:11;;;;;;;;;;;;;;;18.13;67.56;102172.83;2382608;73;51231;-76
2022/11/11 03:06:13;;;;;;;;;;;;;;;18.13;67.74;102174.67;2390681;73;50065;-77
2022/11/11 03:09:14;;;;;;;;;;;;;;;18.13;67.74;102174.67;2419656;73;50314;-77
2022/11/11 03:12:16;;;;;;;;;;;;;;;18.12;67.65;102176.52;2416596;73;50627;-76
2022/11/11 03:15:18;;;;;;;;;;;;;;;18.13;67.59;102179.53;2366318;72;51054;-77
2022/11/11 03:18:19;;;;;;;;;;;;;;;18.12;67.48;102165.80;2394108;73;52279;-76
2022/11/11 03:21:21;;;;;;;;;;;;;;;18.11;67.54;102164.59;2412077;73;51403;-76
2022/11/11 03:24:22;;;;;;;;;;;;;;;18.12;67.45;102168.97;2367370;73;51547;-76
2022/11/11 03:27:24;;;;;;;;;;;;;;;18.12;67.49;102163.62;2338865;73;51370;-77
2022/11/11 03:30:25;;;;;;;;;;;;;;;18.11;67.40;102162.78;2412091;73;50230;-76
2022/11/11 03:33:27;;;;;;;;;;;;;;;18.11;67.51;102151.19;2411920;73;50622;-76
2022/11/11 03:38:14;;;;;;;;;;;;;;;18.11;67.50;102153.88;2365535;73;51465;-76
2022/11/11 03:39:32;;;;;;;;;;;;;;;18.11;67.41;102148.05;2405429;73;23035;-75
2022/11/11 03:42:34;;;;;;;;;;;;;;;18.11;67.51;102145.84;2345628;75;50275;-76
2022/11/11 03:45:35;;;;;;;;;;;;;;;18.10;67.52;102132.10;2411772;73;52552;-76
2022/11/11 03:48:37;;;;;;;;;;;;;;;18.10;67.39;102128.09;2396716;73;51592;-75
2022/11/11 03:51:39;;;;;;;;;;;;;;;18.10;67.50;102130.77;2380590;73;51138;-77
2022/11/11 03:54:40;;;;;;;;;;;;;;;18.08;67.37;102124.70;2406466;74;50410;-75
2022/11/11 03:57:44;;;;;;;;;;;;;;;18.09;67.46;102123.23;2381194;74;50291;-76
2022/11/11 04:00:45;;;;;;;;;;;;;;;18.10;67.32;102125.41;2379959;73;50661;-76
2022/11/11 04:10:22;;;;;;;;;;;;;;;18.06;67.35;102117.66;2300400;74;22293;-75
2022/11/11 04:16:44;;;;;;;;;;;;;;;18.11;66.76;102117.23;2388839;73;25314;-75
2022/11/11 04:23:04;;;;;;;;;;;;;;;18.17;67.26;102125.19;2418206;73;22364;-75
2022/11/11 04:26:06;;;;;;;;;;;;;;;18.25;67.09;102117.27;2410963;73;51553;-75
2022/11/11 04:32:39;;;;;;;;;;;;;;;18.41;66.60;102119.33;2386479;74;23178;-74
2022/11/11 04:35:41;;;;;;;;;;;;;;;18.51;66.30;102126.84;2384592;74;51529;-74
2022/11/11 04:41:57;;;;;;;;;;;;;;;18.65;65.80;102121.02;2355371;73;22893;-75
2022/11/11 04:48:19;;;;;;;;;;;;;;;18.66;65.71;102123.20;2404602;73;22416;-75
2022/11/11 04:52:24;;;;;;;;;;;;;;;18.65;65.71;102133.55;2416094;73;51449;-75
2022/11/11 04:54:24;;;;;;;;;;;;;;;18.63;65.73;102136.91;2413837;73;22391;-75
2022/11/11 04:57:26;;;;;;;;;;;;;;;18.60;65.85;102138.05;2417789;73;50659;-76
2022/11/11 05:00:27;;;;;;;;;;;;;;;18.59;65.87;102138.17;2415987;73;51453;-75
2022/11/11 05:03:29;;;;;;;;;;;;;;;18.55;66.04;102139.45;2410044;73;52102;-76
2022/11/11 05:09:46;;;;;;;;;;;;;;;18.61;65.95;102134.36;2337497;74;22217;-74
2022/11/11 05:12:47;;;;;;;;;;;;;;;18.65;65.75;102137.58;2391770;74;50408;-75
2022/11/11 05:22:35;;;;;;;;;;;;;;;18.62;65.77;102126.65;2416463;73;22306;-75
2022/11/11 05:25:37;;;;;;;;;;;;;;;18.60;65.78;102136.70;2368467;73;51465;-76
2022/11/11 05:28:39;;;;;;;;;;;;;;;18.60;65.85;102131.34;2332350;75;50159;-75
2022/11/11 05:31:40;;;;;;;;;;;;;;;18.60;66.50;102142.53;2332395;75;50643;-75
2022/11/11 05:34:42;;;;;;;;;;;;;;;18.59;66.93;102152.92;2332073;75;52514;-76
2022/11/11 05:38:18;;;;;;;;;;;;;;;18.60;66.88;102158.15;2357271;74;50785;-75
2022/11/11 05:40:47;;;;;;;;;;;;;;;18.65;66.86;102163.05;2353497;74;22422;-74
2022/11/11 05:43:48;;;;;;;;;;;;;;;18.70;66.67;102171.49;2382902;73;51479;-74
2022/11/11 05:46:50;;;;;;;;;;;;;;;18.70;66.59;102182.22;2416817;73;51344;-74
2022/11/11 05:49:52;;;;;;;;;;;;;;;18.68;66.56;102191.77;2382439;73;51494;-74
2022/11/11 05:52:55;;;;;;;;;;;;;;;18.68;66.58;102207.02;2408292;74;50207;-74
2022/11/11 05:55:56;;;;;;;;;;;;;;;18.67;66.61;102194.59;2408082;74;50669;-75
2022/11/11 05:58:59;;;;;;;;;;;;;;;18.65;67.64;102181.34;2382157;74;51028;-74
2022/11/11 06:02:00;;;;;;;;;;;;;;;18.70;66.81;102180.88;2410151;73;50292;-76
2022/11/11 06:05:02;;;;;;;;;;;;;;;18.65;66.85;102185.36;2411410;72;50674;-74
2022/11/11 06:08:04;;;;;;;;;;;;;;;18.62;67.13;102190.16;2411979;73;50472;-75
2022/11/11 06:11:05;;;;;;;;;;;;;;;18.64;67.06;102192.20;2350375;74;52558;-75
2022/11/11 06:14:07;;;;;;;;;;;;;;;18.68;66.96;102189.59;2358088;75;52255;-76
2022/11/11 06:17:08;;;;;;;;;;;;;;;18.68;66.88;102195.79;2361960;74;50244;-77
2022/11/11 06:20:10;;;;;;;;;;;;;;;18.69;66.82;102190.77;2347124;74;50450;-74
2022/11/11 06:23:12;;;;;;;;;;;;;;;18.68;66.77;102200.31;2380382;74;51695;-75
2022/11/11 06:26:14;;;;;;;;;;;;;;;18.67;66.79;102205.31;2367321;74;51342;-75
2022/11/11 06:29:15;;;;;;;;;;;;;;;18.67;66.79;102203.97;2338821;75;50687;-75
2022/11/11 06:32:17;;;;;;;;;;;;;;;18.63;66.93;102210.63;2366196;75;50735;-76
2022/11/11 06:35:18;;;;;;;;;;;;;;;18.64;67.03;102202.92;2366068;75;52507;-74
2022/11/11 06:38:21;;;;;;;;;;;;;;;18.58;67.26;102210.22;2366373;75;51476;-73
2022/11/11 06:41:24;;;;;;;;;;;;;;;18.61;67.32;102208.58;2366438;75;50482;-76
2022/11/11 06:44:26;;;;;;;;;;;;;;;18.67;67.41;102213.35;2366423;75;50316;-75
2022/11/11 06:47:27;;;;;;;;;;;;;;;18.71;67.22;102215.60;2353772;74;49545;-76
2022/11/11 06:50:29;;;;;;;;;;;;;;;18.71;67.26;102210.74;2339779;74;50715;-75
2022/11/11 06:53:30;;;;;;;;;;;;;;;18.69;67.24;102199.31;2353650;75;51505;-76
2022/11/11 06:56:32;;;;;;;;;;;;;;;18.66;67.21;102201.79;2329118;75;50717;-75
2022/11/11 06:59:34;;;;;;;;;;;;;;;18.65;67.23;102200.11;2315355;74;51164;-75
2022/11/11 07:02:35;;;;;;;;;;;;;;;18.62;67.28;102192.33;2316798;75;50105;-75
2022/11/11 07:05:37;;;;;;;;;;;;;;;18.59;67.37;102201.17;2336703;75;50615;-76
2022/11/11 07:08:43;;;;;;;;;;;;;;;18.55;67.54;102189.91;2305608;74;53379;-76
2022/11/11 07:11:42;;;;;;;;;;;;;;;18.55;67.58;102193.93;2339350;74;22385;-74
2022/11/11 07:14:43;;;;;;;;;;;;;;;18.61;67.43;102196.52;2370720;73;50201;-75
2022/11/11 07:17:45;;;;;;;;;;;;;;;18.67;67.15;102209.33;2411871;72;50620;-75
2022/11/11 07:20:46;;;;;;;;;;;;;;;18.70;67.00;102215.73;2381937;73;50730;-75
2022/11/11 07:23:48;;;;;;;;;;;;;;;18.72;66.93;102209.73;2382746;73;49556;-75
2022/11/11 07:26:50;;;;;;;;;;;;;;;18.72;66.90;102209.73;2383093;73;50023;-74
2022/11/11 07:29:51;;;;;;;;;;;;;;;18.68;66.95;102212.38;2411784;73;50412;-75
2022/11/11 07:32:53;;;;;;;;;;;;;;;18.66;66.95;102212.52;2411734;73;51318;-75
2022/11/11 07:35:54;;;;;;;;;;;;;;;18.65;67.03;102209.97;2416782;73;52346;-76
2022/11/11 07:38:56;;;;;;;;;;;;;;;18.61;67.10;102213.95;2382888;73;52050;-75
2022/11/11 07:41:57;;;;;;;;;;;;;;;18.57;67.28;102213.88;2411612;73;50795;-75
2022/11/11 07:44:59;;;;;;;;;;;;;;;18.60;67.30;102224.30;2411489;73;50140;-76
2022/11/11 07:48:01;;;;;;;;;;;;;;;18.66;67.12;102225.08;2380161;73;49519;-77
2022/11/11 07:51:02;;;;;;;;;;;;;;;18.69;67.09;102236.84;2382867;73;50623;-75
2022/11/11 07:54:04;;;;;;;;;;;;;;;18.71;67.30;102238.89;2411437;73;51482;-76
2022/11/11 07:57:05;;;;;;;;;;;;;;;18.70;67.53;102242.55;2411395;73;50331;-76
2022/11/11 08:00:07;;;;;;;;;;;;;;;18.71;67.13;102242.42;2416279;73;51165;-75
2022/11/11 08:03:09;;;;;;;;;;;;;;;18.69;67.11;102237.69;2382363;73;50287;-75
2022/11/11 08:06:10;;;;;;;;;;;;;;;18.68;67.10;102241.88;2411110;73;50251;-75
2022/11/11 08:09:12;;;;;;;;;;;;;;;18.68;67.10;102252.59;2382368;73;50604;-76
2022/11/11 08:15:33;;;;;;;;;;;;;;;18.63;67.17;102265.59;2387470;73;22464;-73
2022/11/11 08:18:35;;;;;;;;;;;;;;;18.66;67.05;102259.94;2408623;72;51651;-75
2022/11/11 08:21:36;;;;;;;;;;;;;;;18.67;67.01;102262.95;2409906;73;51447;-74
2022/11/11 08:24:38;;;;;;;;;;;;;;;18.65;67.05;102256.88;2408871;72;50017;-73
2022/11/11 08:27:40;;;;;;;;;;;;;;;18.61;67.15;102260.86;2407134;73;51523;-74
2022/11/11 08:30:41;;;;;;;;;;;;;;;18.64;67.07;102279.33;2406445;73;51463;-75
2022/11/11 08:33:43;;;;;;;;;;;;;;;18.64;67.03;102280.67;2368951;73;51498;-76
2022/11/11 08:36:44;;;;;;;;;;;;;;;18.61;67.09;102280.97;2387450;73;52431;-76
2022/11/11 08:39:46;;;;;;;;;;;;;;;18.53;67.30;102286.20;2364075;74;51487;-76
2022/11/11 08:42:48;;;;;;;;;;;;;;;18.52;67.40;102292.53;2411481;73;50415;-76
2022/11/11 08:45:51;;;;;;;;;;;;;;;18.59;67.20;102297.18;2420047;73;50617;-75
2022/11/11 08:48:53;;;;;;;;;;;;;;;18.65;67.02;102297.97;2388632;73;50679;-75
2022/11/11 08:51:55;;;;;;;;;;;;;;;18.68;66.94;102296.84;2414632;73;51488;-75
2022/11/11 08:54:56;;;;;;;;;;;;;;;18.70;66.82;102298.86;2414981;73;50257;-75
2022/11/11 08:57:58;;;;;;;;;;;;;;;18.69;66.79;102308.74;2387951;73;51240;-75
2022/11/11 09:01:00;;;;;;;;;;;;;;;18.70;66.82;102321.65;2382085;73;51188;-75
2022/11/11 09:04:02;;;;;;;;;;;;;;;18.67;66.89;102328.64;2385826;73;51513;-75
2022/11/11 09:07:04;;;;;;;;;;;;;;;18.66;66.88;102332.33;2381147;73;51497;-75
2022/11/11 09:10:06;;;;;;;;;;;;;;;18.64;66.95;102332.95;2381355;73;51426;-75
2022/11/11 09:13:07;;;;;;;;;;;;;;;18.62;67.03;102337.61;2369145;74;51570;-76
2022/11/11 09:16:09;;;;;;;;;;;;;;;18.63;67.01;102335.30;2350128;75;51495;-75
2022/11/11 09:19:10;;;;;;;;;;;;;;;18.62;67.05;102334.92;2343680;73;53645;-75
2022/11/11 09:22:12;;;;;;;;;;;;;;;18.62;67.00;102338.95;2427085;72;50679;-75
2022/11/11 09:25:14;;;;;;;;;;;;;;;18.63;66.94;102340.66;2398400;72;52358;-75
2022/11/11 09:28:15;;;;;;;;;;;;;;;18.62;67.00;102337.11;2425591;72;50635;-75
2022/11/11 09:31:17;;;;;;;;;;;;;;;18.63;66.92;102342.00;2367429;73;50777;-75
2022/11/11 09:34:18;;;;;;;;;;;;;;;18.63;66.89;102342.00;2368566;75;51464;-75
2022/11/11 09:37:20;;;;;;;;;;;;;;;18.60;66.98;102333.75;2340908;73;52471;-76
2022/11/11 09:40:23;;;;;;;;;;;;;;;18.54;67.21;102336.98;2407433;73;51433;-76
2022/11/11 09:43:38;;;;;;;;;;;;;;;18.50;67.32;102341.78;2408754;72;50037;-75
2022/11/11 09:46:41;;;;;;;;;;;;;;;18.59;67.10;102355.33;2346351;73;51730;-75
2022/11/11 09:50:01;;;;;;;;;;;;;;;18.63;66.94;102362.95;2371208;73;51720;-75
2022/11/11 09:53:17;;;;;;;;;;;;;;;18.64;66.90;102364.63;2376229;73;51566;-75
2022/11/11 09:56:19;;;;;;;;;;;;;;;18.64;66.86;102367.31;2379584;73;50579;-76
2022/11/11 09:59:22;;;;;;;;;;;;;;;18.64;66.85;102370.48;2397597;73;51601;-76
2022/11/11 10:02:25;;;;;;;;;;;;;;;18.65;66.84;102370.83;2353600;74;52420;-76
2022/11/11 10:05:28;;;;;;;;;;;;;;;18.63;66.84;102366.97;2359201;73;51543;-75
2022/11/11 10:08:30;;;;;;;;;;;;;;;18.68;66.76;102383.98;2373284;73;50660;-76
2022/11/11 10:11:50;;;;;;;;;;;;;;;18.61;66.89;102382.84;2380937;73;51572;-76
2022/11/11 10:14:52;;;;;;;;;;;;;;;18.59;66.99;102380.29;2368647;73;52211;-77
2022/11/11 10:17:55;;;;;;;;;;;;;;;18.63;66.85;102380.88;2359014;75;50721;-76
2022/11/11 10:20:57;;;;;;;;;;;;;;;18.62;66.88;102383.19;2367831;75;50701;-76
2022/11/11 10:23:59;;;;;;;;;;;;;;;18.62;66.90;102379.16;2324393;74;51704;-76
2022/11/11 10:27:02;;;;;;;;;;;;;;;18.62;66.85;102380.00;2340936;75;51235;-76
2022/11/11 10:30:08;;;;;;;;;;;;;;;18.60;66.92;102377.11;2368127;75;50327;-77
2022/11/11 10:33:20;;;;;;;;;;;;;;;18.59;66.94;102380.29;2361418;75;51600;-76
2022/11/11 10:36:22;;;;;;;;;;;;;;;18.59;66.90;102379.45;2368242;74;50690;-76
2022/11/11 10:39:25;;;;;;;;;;;;;;;18.63;66.82;102372.83;2347415;74;49632;-76
2022/11/11 10:42:27;;;;;;;;;;;;;;;18.60;66.78;102374.43;2368172;74;51539;-76
2022/11/11 10:45:33;;;;;;;;;;;;;;;18.63;66.81;102376.36;2362526;74;50635;-75
2022/11/11 10:48:36;;;;;;;;;;;;;;;18.64;66.77;102371.83;2368890;74;50797;-75
2022/11/11 10:51:48;;;;;;;;;;;;;;;18.67;67.76;102371.55;2339818;75;51746;-76
2022/11/11 10:54:52;;;;;;;;;;;;;;;18.68;67.41;102373.25;2373960;73;51433;-74
2022/11/11 10:57:55;;;;;;;;;;;;;;;18.68;67.82;102365.21;2361329;75;50440;-77
2022/11/11 11:00:56;;;;;;;;;;;;;;;18.66;67.85;102361.81;2381474;73;51527;-77
2022/11/11 11:04:03;;;;;;;;;;;;;;;18.67;67.80;102364.84;2301207;76;52379;-77
2022/11/11 11:07:05;;;;;;;;;;;;;;;18.66;68.29;102361.81;2340432;75;51526;-77
2022/11/11 11:10:17;;;;;;;;;;;;;;;18.63;68.18;102355.41;2368211;75;51557;-76
2022/11/11 11:13:26;;;;;;;;;;;;;;;18.66;67.78;102361.81;2365945;75;50472;-76
2022/11/11 11:16:31;;;;;;;;;;;;;;;18.69;67.52;102348.96;2337566;75;51059;-77
2022/11/11 11:19:32;;;;;;;;;;;;;;;18.69;67.43;102342.76;2381174;73;50825;-77
2022/11/11 11:22:47;;;;;;;;;;;;;;;18.67;67.36;102337.52;2369210;75;50559;-77
2022/11/11 11:25:53;;;;;;;;;;;;;;;18.64;67.46;102339.66;2363752;73;51507;-77
2022/11/11 11:28:59;;;;;;;;;;;;;;;18.66;67.33;102334.50;2369894;74;52938;-77
2022/11/11 11:32:16;;;;;;;;;;;;;;;18.67;67.28;102334.00;2358714;74;51499;-77
2022/11/11 11:35:22;;;;;;;;;;;;;;;18.64;67.32;102329.77;2388704;74;50567;-77
2022/11/11 11:38:26;;;;;;;;;;;;;;;18.58;67.40;102331.70;2377175;74;51325;-77
2022/11/11 11:41:35;;;;;;;;;;;;;;;18.56;67.36;102326.13;2350094;75;52990;-77
2022/11/11 11:44:37;;;;;;;;;;;;;;;18.58;67.49;102330.36;2357352;75;51535;-77
2022/11/11 11:47:41;;;;;;;;;;;;;;;18.60;67.43;102324.83;2365036;74;50806;-77
2022/11/11 11:50:45;;;;;;;;;;;;;;;18.64;67.28;102319.55;2358101;74;51547;-77
2022/11/11 11:53:51;;;;;;;;;;;;;;;18.65;67.21;102311.84;2328439;75;52406;-77
2022/11/11 11:56:54;;;;;;;;;;;;;;;18.64;67.21;102314.19;2353776;75;50389;-77
2022/11/11 11:59:57;;;;;;;;;;;;;;;18.62;67.21;102312.14;2353704;75;50765;-77
2022/11/11 12:03:06;;;;;;;;;;;;;;;18.64;67.15;102311.00;2351798;75;50657;-77
2022/11/11 12:06:15;;;;;;;;;;;;;;;18.60;67.23;102319.00;2328736;75;51528;-77
2022/11/11 12:09:19;;;;;;;;;;;;;;;18.60;67.24;102324.36;2353829;75;50702;-77
2022/11/11 12:12:25;;;;;;;;;;;;;;;18.56;67.25;102328.80;2353670;75;52349;-77
2022/11/11 12:15:34;;;;;;;;;;;;;;;18.58;67.31;102321.47;2348883;74;51480;-77
2022/11/11 12:18:56;;;;;;;;;;;;;;;18.61;67.16;102318.50;2363840;73;49634;-77
2022/11/11 12:22:08;;;;;;;;;;;;;;;18.61;67.14;102313.14;2368320;75;51540;-77
2022/11/11 12:25:18;;;;;;;;;;;;;;;18.64;67.02;102316.37;2386879;72;50391;-77
2022/11/11 12:28:21;;;;;;;;;;;;;;;18.63;66.97;102309.33;2377832;73;50299;-77
2022/11/11 12:31:24;;;;;;;;;;;;;;;18.63;66.97;102318.71;2340456;75;51267;-77
2022/11/11 12:34:27;;;;;;;;;;;;;;;18.61;67.05;102320.68;2368604;74;50330;-77
2022/11/11 12:37:33;;;;;;;;;;;;;;;18.58;67.11;102318.29;2368249;75;50784;-77
2022/11/11 12:40:46;;;;;;;;;;;;;;;18.58;66.95;102319.63;2368263;75;50744;-77
2022/11/11 12:43:49;;;;;;;;;;;;;;;18.58;66.96;102309.41;2368022;75;50515;-77
2022/11/11 12:46:52;;;;;;;;;;;;;;;18.59;67.10;102311.09;2393725;72;50362;-77
2022/11/11 12:49:58;;;;;;;;;;;;;;;18.62;66.95;102312.98;2422674;73;50429;-77
2022/11/11 12:53:07;;;;;;;;;;;;;;;18.66;66.84;102310.88;2418080;73;51510;-77
2022/11/11 12:56:13;;;;;;;;;;;;;;;18.66;66.79;102309.53;2358168;74;50130;-77
2022/11/11 12:59:19;;;;;;;;;;;;;;;18.65;66.82;102311.84;2356193;74;50316;-77
2022/11/11 13:02:39;;;;;;;;;;;;;;;18.65;66.79;102315.87;2377778;74;50307;-77
2022/11/11 13:06:00;;;;;;;;;;;;;;;18.62;66.83;102316.16;2368527;74;50246;-77
2022/11/11 13:09:07;;;;;;;;;;;;;;;18.63;66.82;102307.98;2367857;75;50696;-77
2022/11/11 13:12:25;;;;;;;;;;;;;;;18.62;66.82;102305.44;2368702;75;51505;-77
2022/11/11 13:15:26;;;;;;;;;;;;;;;18.55;67.06;102304.30;2368505;75;51570;-77
2022/11/11 13:18:30;;;;;;;;;;;;;;;18.57;66.97;102303.17;2368712;75;51499;-77
2022/11/11 13:21:36;;;;;;;;;;;;;;;18.61;66.88;102303.76;2333585;74;50026;-77
2022/11/11 13:24:37;;;;;;;;;;;;;;;18.58;66.87;102292.83;2340663;73;51486;-77
2022/11/11 13:27:50;;;;;;;;;;;;;;;18.58;66.86;102298.19;2402598;73;50160;-76
2022/11/11 13:30:53;;;;;;;;;;;;;;;18.58;66.88;102298.69;2406998;73;51638;-76
2022/11/11 13:33:55;;;;;;;;;;;;;;;18.56;66.87;102292.11;2386066;73;52651;-76
2022/11/11 13:36:57;;;;;;;;;;;;;;;18.54;66.93;102297.27;2413679;73;50447;-77
2022/11/11 13:40:00;;;;;;;;;;;;;;;18.52;66.95;102297.89;2414065;73;50220;-77
2022/11/11 13:43:02;;;;;;;;;;;;;;;18.46;67.04;102292.61;2413470;73;50311;-77
2022/11/11 13:46:03;;;;;;;;;;;;;;;18.47;67.13;102290.27;2387439;73;49596;-77
2022/11/11 13:49:06;;;;;;;;;;;;;;;18.54;66.96;102296.77;2386765;73;51567;-77
2022/11/11 13:52:27;;;;;;;;;;;;;;;18.59;66.76;102295.00;2414079;73;50738;-77
2022/11/11 13:55:31;;;;;;;;;;;;;;;18.60;66.73;102298.02;2383637;73;52534;-77
2022/11/11 13:58:36;;;;;;;;;;;;;;;18.59;66.69;102294.50;2367955;73;50974;-77
2022/11/11 14:01:39;;;;;;;;;;;;;;;18.59;66.67;102292.33;2367840;75;51510;-77
2022/11/11 14:04:59;;;;;;;;;;;;;;;18.56;66.74;102291.27;2367673;75;50492;-77
2022/11/11 14:08:01;;;;;;;;;;;;;;;18.60;66.64;102298.02;2367850;75;50678;-76
2022/11/11 14:11:02;;;;;;;;;;;;;;;18.58;66.65;102297.34;2313985;75;52438;-77
2022/11/11 14:14:22;;;;;;;;;;;;;;;18.52;66.77;102304.09;2367789;75;51420;-77
2022/11/11 14:17:24;;;;;;;;;;;;;;;18.49;66.93;102302.55;2373976;72;51322;-78
2022/11/11 14:20:33;;;;;;;;;;;;;;;18.58;66.74;102296.00;2401826;72;52539;-78
2022/11/11 14:23:41;;;;;;;;;;;;;;;18.63;66.54;102305.80;2386165;73;52473;-78
2022/11/11 14:26:43;;;;;;;;;;;;;;;18.65;66.43;102301.13;2412514;73;51654;-75
2022/11/11 14:29:49;;;;;;;;;;;;;;;18.67;66.33;102297.81;2413149;73;51338;-76
2022/11/11 14:32:52;;;;;;;;;;;;;;;18.65;66.36;102303.33;2413013;73;50502;-76
2022/11/11 14:35:58;;;;;;;;;;;;;;;18.65;66.33;102301.13;2386189;73;52373;-77
2022/11/11 14:39:05;;;;;;;;;;;;;;;18.63;66.37;102300.44;2413708;73;51579;-76
2022/11/11 14:42:08;;;;;;;;;;;;;;;18.62;66.41;102308.11;2413941;73;50646;-76
2022/11/11 14:45:30;;;;;;;;;;;;;;;18.56;66.56;102307.36;2409635;73;50793;-76
2022/11/11 14:48:51;;;;;;;;;;;;;;;18.50;66.73;102306.94;2401344;73;50315;-77
2022/11/11 14:51:54;;;;;;;;;;;;;;;18.56;66.64;102312.72;2412988;73;50701;-77
2022/11/11 14:55:05;;;;;;;;;;;;;;;18.63;66.39;102317.87;2413832;73;52494;-78
2022/11/11 14:58:13;;;;;;;;;;;;;;;18.65;66.27;102321.23;2413965;73;22323;-77
2022/11/11 15:01:20;;;;;;;;;;;;;;;18.65;66.26;102319.89;2409519;72;51496;-76
2022/11/11 15:04:19;;;;;;;;;;;;;;;18.62;66.28;102321.02;2408632;73;22946;-77
2022/11/11 15:07:28;;;;;;;;;;;;;;;18.64;66.21;102326.25;2413998;73;51629;-77
2022/11/11 15:10:34;;;;;;;;;;;;;;;18.59;66.33;102323.16;2413971;73;50327;-77
2022/11/11 15:13:46;;;;;;;;;;;;;;;18.57;66.38;102323.28;2387307;73;50934;-77
2022/11/11 15:17:06;;;;;;;;;;;;;;;18.50;66.58;102320.34;2414129;73;51493;-77
2022/11/11 15:20:18;;;;;;;;;;;;;;;18.48;66.64;102319.62;2413960;73;50492;-77
2022/11/11 15:23:38;;;;;;;;;;;;;;;18.55;66.56;102323.07;2413461;73;51498;-77
2022/11/11 15:26:54;;;;;;;;;;;;;;;18.67;66.16;102328.64;2416253;73;49623;-77
2022/11/11 15:30:00;;;;;;;;;;;;;;;18.70;65.96;102321.65;2413225;73;51570;-77
2022/11/11 15:33:06;;;;;;;;;;;;;;;18.70;65.95;102326.55;2412575;73;51418;-77
2022/11/11 15:36:12;;;;;;;;;;;;;;;18.68;65.94;102326.33;2379887;74;50314;-77
2022/11/11 15:39:14;;;;;;;;;;;;;;;18.67;65.98;102325.96;2351174;73;51279;-77
2022/11/11 15:42:23;;;;;;;;;;;;;;;18.62;66.09;102328.22;2405873;74;51470;-78
2022/11/11 15:45:26;;;;;;;;;;;;;;;18.62;66.06;102329.06;2392698;74;50464;-77
2022/11/11 15:48:29;;;;;;;;;;;;;;;18.56;66.25;102331.48;2411719;73;50763;-77
2022/11/11 15:51:32;;;;;;;;;;;;;;;18.50;66.41;102325.70;2387668;73;49791;-78
2022/11/11 15:54:34;;;;;;;;;;;;;;;18.56;66.36;102334.17;2388363;73;50297;-77
2022/11/11 15:57:38;;;;;;;;;;;;;;;18.63;66.14;102339.32;2414426;73;51500;-77
2022/11/11 16:00:39;;;;;;;;;;;;;;;18.69;65.91;102340.08;2378187;73;22221;-77
2022/11/11 16:03:41;;;;;;;;;;;;;;;18.71;65.82;102338.11;2385245;73;50830;-77
2022/11/11 16:06:42;;;;;;;;;;;;;;;18.69;65.84;102336.06;2414361;73;51537;-77
2022/11/11 16:09:44;;;;;;;;;;;;;;;18.67;65.85;102344.73;2414240;73;51409;-77
2022/11/11 16:12:47;;;;;;;;;;;;;;;18.68;65.79;102341.08;2412741;73;51417;-77
2022/11/11 16:15:59;;;;;;;;;;;;;;;18.63;65.94;102339.32;2387629;73;51249;-77
2022/11/11 16:19:19;;;;;;;;;;;;;;;18.63;65.94;102337.98;2414007;73;50693;-77
2022/11/11 16:22:22;;;;;;;;;;;;;;;18.55;66.13;102343.17;2414220;73;50280;-78
2022/11/11 16:25:24;;;;;;;;;;;;;;;18.55;66.19;102342.70;2412879;73;51610;-77
2022/11/11 16:28:30;;;;;;;;;;;;;;;18.62;66.05;102341.63;2416427;73;52200;-76
2022/11/11 16:31:37;;;;;;;;;;;;;;;18.69;65.85;102349.46;2383143;73;50319;-76
2022/11/11 16:34:41;;;;;;;;;;;;;;;18.72;65.68;102353.20;2389565;73;51466;-77
2022/11/11 16:37:52;;;;;;;;;;;;;;;18.69;65.71;102346.78;2412677;73;51381;-77
2022/11/11 16:40:53;;;;;;;;;;;;;;;18.67;65.74;102347.41;2385741;73;52636;-75
2022/11/11 16:43:56;;;;;;;;;;;;;;;18.65;65.76;102342.67;2411755;73;51519;-76
2022/11/11 16:46:58;;;;;;;;;;;;;;;18.64;65.79;102345.02;2412497;73;51524;-76
2022/11/11 16:50:00;;;;;;;;;;;;;;;18.61;65.84;102343.97;2412450;73;50309;-76